sensor_id;sensor_type;location;lat;lon;timestamp;P1;durP1;ratioP1;P2;durP2;ratioP2
11064;SDS011;5585;52.530;7.320;2022-08-18T00:02:13;18.23;;;16.52;;
11064;SDS011;5585;52.530;7.320;2022-08-18T00:04:41;17.08;;;15.38;;
11064;SDS011;5585;52.530;7.320;2022-08-18T00:07:09;18.20;;;16.50;;
11064;SDS011;5585;52.530;7.320;2022-08-18T00:09:37;16.60;;;15.00;;
11064;SDS011;5585;52.530;7.320;2022-08-18T00:12:05;18.98;;;16.88;;
11064;SDS011;5585;52.530;7.320;2022-08-18T00:14:32;17.85;;;16.05;;
11064;SDS011;5585;52.530;7.320;2022-08-18T00:16:59;16.95;;;15.35;;
11064;SDS011;5585;52.530;7.320;2022-08-18T00:19:25;17.73;;;15.95;;
11064;SDS011;5585;52.530;7.320;2022-08-18T00:21:52;17.92;;;16.08;;
11064;SDS011;5585;52.530;7.320;2022-08-18T00:24:19;17.65;;;15.93;;
11064;SDS011;5585;52.530;7.320;2022-08-18T00:26:47;16.90;;;15.27;;
11064;SDS011;5585;52.530;7.320;2022-08-18T00:29:13;17.08;;;15.38;;
11064;SDS011;5585;52.530;7.320;2022-08-18T00:31:39;16.02;;;14.52;;
11064;SDS011;5585;52.530;7.320;2022-08-18T00:34:06;17.40;;;15.80;;
11064;SDS011;5585;52.530;7.320;2022-08-18T00:36:32;18.65;;;16.75;;
11064;SDS011;5585;52.530;7.320;2022-08-18T00:38:59;18.08;;;16.35;;
11064;SDS011;5585;52.530;7.320;2022-08-18T00:41:26;17.73;;;16.02;;
11064;SDS011;5585;52.530;7.320;2022-08-18T00:43:54;18.33;;;16.63;;
11064;SDS011;5585;52.530;7.320;2022-08-18T00:46:23;18.02;;;16.33;;
11064;SDS011;5585;52.530;7.320;2022-08-18T00:48:50;16.65;;;15.13;;
11064;SDS011;5585;52.530;7.320;2022-08-18T00:51:17;17.88;;;16.17;;
11064;SDS011;5585;52.530;7.320;2022-08-18T00:53:47;18.58;;;16.85;;
11064;SDS011;5585;52.530;7.320;2022-08-18T00:56:15;18.38;;;16.65;;
11064;SDS011;5585;52.530;7.320;2022-08-18T00:58:44;18.13;;;16.40;;
11064;SDS011;5585;52.530;7.320;2022-08-18T01:01:15;18.52;;;16.75;;
11064;SDS011;5585;52.530;7.320;2022-08-18T01:03:42;18.60;;;16.80;;
11064;SDS011;5585;52.530;7.320;2022-08-18T01:06:10;18.52;;;16.77;;
11064;SDS011;5585;52.530;7.320;2022-08-18T01:08:39;17.63;;;15.82;;
11064;SDS011;5585;52.530;7.320;2022-08-18T01:11:06;18.00;;;16.30;;
11064;SDS011;5585;52.530;7.320;2022-08-18T01:13:34;17.73;;;16.08;;
11064;SDS011;5585;52.530;7.320;2022-08-18T01:16:03;16.45;;;14.85;;
11064;SDS011;5585;52.530;7.320;2022-08-18T01:18:51;17.90;;;16.23;;
11064;SDS011;5585;52.530;7.320;2022-08-18T01:21:35;17.98;;;16.27;;
11064;SDS011;5585;52.530;7.320;2022-08-18T01:24:18;17.65;;;15.95;;
11064;SDS011;5585;52.530;7.320;2022-08-18T01:26:45;15.85;;;14.38;;
11064;SDS011;5585;52.530;7.320;2022-08-18T01:29:15;17.23;;;15.63;;
11064;SDS011;5585;52.530;7.320;2022-08-18T01:31:43;18.58;;;16.88;;
11064;SDS011;5585;52.530;7.320;2022-08-18T01:34:11;18.35;;;16.48;;
11064;SDS011;5585;52.530;7.320;2022-08-18T01:36:38;18.17;;;16.35;;
11064;SDS011;5585;52.530;7.320;2022-08-18T01:39:06;17.98;;;16.23;;
11064;SDS011;5585;52.530;7.320;2022-08-18T01:41:35;18.17;;;16.48;;
11064;SDS011;5585;52.530;7.320;2022-08-18T01:44:01;18.45;;;16.65;;
11064;SDS011;5585;52.530;7.320;2022-08-18T01:46:29;17.10;;;15.48;;
11064;SDS011;5585;52.530;7.320;2022-08-18T01:48:57;16.50;;;14.80;;
11064;SDS011;5585;52.530;7.320;2022-08-18T01:51:25;16.02;;;14.50;;
11064;SDS011;5585;52.530;7.320;2022-08-18T01:53:52;18.67;;;16.92;;
11064;SDS011;5585;52.530;7.320;2022-08-18T01:56:18;17.13;;;15.52;;
11064;SDS011;5585;52.530;7.320;2022-08-18T01:58:46;17.25;;;15.55;;
11064;SDS011;5585;52.530;7.320;2022-08-18T02:01:13;17.25;;;15.55;;
11064;SDS011;5585;52.530;7.320;2022-08-18T02:03:40;17.83;;;16.17;;
11064;SDS011;5585;52.530;7.320;2022-08-18T02:06:09;17.45;;;15.85;;
11064;SDS011;5585;52.530;7.320;2022-08-18T02:08:36;16.42;;;14.85;;
11064;SDS011;5585;52.530;7.320;2022-08-18T02:11:03;16.60;;;15.00;;
11064;SDS011;5585;52.530;7.320;2022-08-18T02:13:29;17.20;;;15.60;;
11064;SDS011;5585;52.530;7.320;2022-08-18T02:15:57;17.33;;;15.63;;
11064;SDS011;5585;52.530;7.320;2022-08-18T02:18:25;16.70;;;15.20;;
11064;SDS011;5585;52.530;7.320;2022-08-18T02:20:52;17.35;;;15.75;;
11064;SDS011;5585;52.530;7.320;2022-08-18T02:23:19;15.63;;;14.13;;
11064;SDS011;5585;52.530;7.320;2022-08-18T02:25:46;16.65;;;15.15;;
11064;SDS011;5585;52.530;7.320;2022-08-18T02:28:12;15.82;;;14.43;;
11064;SDS011;5585;52.530;7.320;2022-08-18T02:30:39;18.52;;;16.85;;
11064;SDS011;5585;52.530;7.320;2022-08-18T02:33:07;16.95;;;15.48;;
11064;SDS011;5585;52.530;7.320;2022-08-18T02:35:34;18.23;;;16.63;;
11064;SDS011;5585;52.530;7.320;2022-08-18T02:38:03;18.55;;;16.85;;
11064;SDS011;5585;52.530;7.320;2022-08-18T02:40:30;16.40;;;14.88;;
11064;SDS011;5585;52.530;7.320;2022-08-18T02:42:58;17.05;;;15.48;;
11064;SDS011;5585;52.530;7.320;2022-08-18T02:45:24;17.33;;;15.73;;
11064;SDS011;5585;52.530;7.320;2022-08-18T02:47:51;16.90;;;15.40;;
11064;SDS011;5585;52.530;7.320;2022-08-18T02:50:19;18.17;;;16.52;;
11064;SDS011;5585;52.530;7.320;2022-08-18T02:52:45;17.10;;;15.50;;
11064;SDS011;5585;52.530;7.320;2022-08-18T02:55:12;17.05;;;15.50;;
11064;SDS011;5585;52.530;7.320;2022-08-18T02:57:40;19.67;;;17.73;;
11064;SDS011;5585;52.530;7.320;2022-08-18T03:00:07;18.00;;;16.35;;
11064;SDS011;5585;52.530;7.320;2022-08-18T03:02:36;18.65;;;16.90;;
11064;SDS011;5585;52.530;7.320;2022-08-18T03:05:03;19.50;;;17.70;;
11064;SDS011;5585;52.530;7.320;2022-08-18T03:07:31;18.27;;;16.38;;
11064;SDS011;5585;52.530;7.320;2022-08-18T03:09:58;20.88;;;18.58;;
11064;SDS011;5585;52.530;7.320;2022-08-18T03:12:24;20.45;;;18.13;;
11064;SDS011;5585;52.530;7.320;2022-08-18T03:14:50;20.05;;;18.05;;
11064;SDS011;5585;52.530;7.320;2022-08-18T03:17:17;19.25;;;17.33;;
11064;SDS011;5585;52.530;7.320;2022-08-18T03:19:43;19.08;;;17.13;;
11064;SDS011;5585;52.530;7.320;2022-08-18T03:22:10;21.85;;;19.33;;
11064;SDS011;5585;52.530;7.320;2022-08-18T03:24:39;22.33;;;20.00;;
11064;SDS011;5585;52.530;7.320;2022-08-18T03:27:06;19.63;;;17.52;;
11064;SDS011;5585;52.530;7.320;2022-08-18T03:29:33;22.27;;;19.92;;
11064;SDS011;5585;52.530;7.320;2022-08-18T03:32:00;21.35;;;19.23;;
11064;SDS011;5585;52.530;7.320;2022-08-18T03:34:27;21.17;;;18.98;;
11064;SDS011;5585;52.530;7.320;2022-08-18T03:36:53;23.38;;;21.02;;
11064;SDS011;5585;52.530;7.320;2022-08-18T03:39:20;21.98;;;19.88;;
11064;SDS011;5585;52.530;7.320;2022-08-18T03:41:50;22.42;;;20.30;;
11064;SDS011;5585;52.530;7.320;2022-08-18T03:44:18;22.48;;;20.20;;
11064;SDS011;5585;52.530;7.320;2022-08-18T03:46:45;21.75;;;19.52;;
11064;SDS011;5585;52.530;7.320;2022-08-18T03:49:11;22.70;;;20.05;;
11064;SDS011;5585;52.530;7.320;2022-08-18T03:51:40;23.23;;;20.83;;
11064;SDS011;5585;52.530;7.320;2022-08-18T03:54:08;22.13;;;19.95;;
11064;SDS011;5585;52.530;7.320;2022-08-18T03:56:37;22.33;;;20.02;;
11064;SDS011;5585;52.530;7.320;2022-08-18T03:59:06;26.08;;;23.45;;
11064;SDS011;5585;52.530;7.320;2022-08-18T04:01:35;22.88;;;20.58;;
11064;SDS011;5585;52.530;7.320;2022-08-18T04:04:03;22.55;;;20.23;;
11064;SDS011;5585;52.530;7.320;2022-08-18T04:06:31;22.60;;;20.30;;
11064;SDS011;5585;52.530;7.320;2022-08-18T04:08:59;24.02;;;21.63;;
11064;SDS011;5585;52.530;7.320;2022-08-18T04:11:26;23.23;;;20.85;;
11064;SDS011;5585;52.530;7.320;2022-08-18T04:13:53;25.15;;;22.55;;
11064;SDS011;5585;52.530;7.320;2022-08-18T04:16:23;26.30;;;23.55;;
11064;SDS011;5585;52.530;7.320;2022-08-18T04:18:50;24.13;;;21.73;;
11064;SDS011;5585;52.530;7.320;2022-08-18T04:21:16;25.50;;;22.95;;
11064;SDS011;5585;52.530;7.320;2022-08-18T04:23:43;22.38;;;20.17;;
11064;SDS011;5585;52.530;7.320;2022-08-18T04:26:10;25.27;;;22.38;;
11064;SDS011;5585;52.530;7.320;2022-08-18T04:28:38;26.98;;;24.10;;
11064;SDS011;5585;52.530;7.320;2022-08-18T04:31:07;23.95;;;21.50;;
11064;SDS011;5585;52.530;7.320;2022-08-18T04:33:36;24.08;;;21.58;;
11064;SDS011;5585;52.530;7.320;2022-08-18T04:36:06;25.52;;;22.73;;
11064;SDS011;5585;52.530;7.320;2022-08-18T04:38:33;23.88;;;21.40;;
11064;SDS011;5585;52.530;7.320;2022-08-18T04:40:59;25.17;;;22.48;;
11064;SDS011;5585;52.530;7.320;2022-08-18T04:43:27;23.52;;;20.85;;
11064;SDS011;5585;52.530;7.320;2022-08-18T04:45:54;23.35;;;21.02;;
11064;SDS011;5585;52.530;7.320;2022-08-18T04:48:25;23.13;;;20.73;;
11064;SDS011;5585;52.530;7.320;2022-08-18T04:50:53;23.05;;;20.05;;
11064;SDS011;5585;52.530;7.320;2022-08-18T04:53:19;24.38;;;21.63;;
11064;SDS011;5585;52.530;7.320;2022-08-18T04:56:03;23.55;;;21.13;;
11064;SDS011;5585;52.530;7.320;2022-08-18T04:58:30;23.70;;;21.20;;
11064;SDS011;5585;52.530;7.320;2022-08-18T05:00:57;23.42;;;21.00;;
11064;SDS011;5585;52.530;7.320;2022-08-18T05:03:24;24.80;;;22.10;;
11064;SDS011;5585;52.530;7.320;2022-08-18T05:05:50;26.90;;;22.45;;
11064;SDS011;5585;52.530;7.320;2022-08-18T05:08:18;20.42;;;18.23;;
11064;SDS011;5585;52.530;7.320;2022-08-18T05:10:46;19.23;;;17.35;;
11064;SDS011;5585;52.530;7.320;2022-08-18T05:13:13;22.33;;;19.08;;
11064;SDS011;5585;52.530;7.320;2022-08-18T05:15:40;19.80;;;17.88;;
11064;SDS011;5585;52.530;7.320;2022-08-18T05:18:07;20.50;;;18.40;;
11064;SDS011;5585;52.530;7.320;2022-08-18T05:20:33;21.95;;;18.30;;
11064;SDS011;5585;52.530;7.320;2022-08-18T05:23:01;21.17;;;18.90;;
11064;SDS011;5585;52.530;7.320;2022-08-18T05:25:29;23.00;;;19.70;;
11064;SDS011;5585;52.530;7.320;2022-08-18T05:27:56;19.50;;;17.42;;
11064;SDS011;5585;52.530;7.320;2022-08-18T05:30:22;21.65;;;19.35;;
11064;SDS011;5585;52.530;7.320;2022-08-18T05:32:49;18.95;;;16.48;;
11064;SDS011;5585;52.530;7.320;2022-08-18T05:35:21;19.85;;;16.98;;
11064;SDS011;5585;52.530;7.320;2022-08-18T05:37:55;20.88;;;18.38;;
11064;SDS011;5585;52.530;7.320;2022-08-18T05:40:25;20.10;;;17.38;;
11064;SDS011;5585;52.530;7.320;2022-08-18T05:42:54;18.38;;;16.45;;
11064;SDS011;5585;52.530;7.320;2022-08-18T05:45:21;19.40;;;16.55;;
11064;SDS011;5585;52.530;7.320;2022-08-18T05:47:48;17.92;;;16.02;;
11064;SDS011;5585;52.530;7.320;2022-08-18T05:50:16;18.45;;;16.65;;
11064;SDS011;5585;52.530;7.320;2022-08-18T05:52:46;18.27;;;16.25;;
11064;SDS011;5585;52.530;7.320;2022-08-18T05:55:15;16.83;;;15.05;;
11064;SDS011;5585;52.530;7.320;2022-08-18T05:58:02;17.83;;;16.02;;
11064;SDS011;5585;52.530;7.320;2022-08-18T06:00:30;16.17;;;14.45;;
11064;SDS011;5585;52.530;7.320;2022-08-18T06:02:57;17.58;;;15.73;;
11064;SDS011;5585;52.530;7.320;2022-08-18T06:05:27;17.77;;;15.50;;
11064;SDS011;5585;52.530;7.320;2022-08-18T06:07:54;15.85;;;14.15;;
11064;SDS011;5585;52.530;7.320;2022-08-18T06:10:22;16.15;;;14.43;;
11064;SDS011;5585;52.530;7.320;2022-08-18T06:12:50;16.85;;;14.82;;
11064;SDS011;5585;52.530;7.320;2022-08-18T06:15:23;14.48;;;12.98;;
11064;SDS011;5585;52.530;7.320;2022-08-18T06:17:58;16.10;;;13.70;;
11064;SDS011;5585;52.530;7.320;2022-08-18T06:20:27;14.98;;;13.05;;
11064;SDS011;5585;52.530;7.320;2022-08-18T06:22:58;14.55;;;13.02;;
11064;SDS011;5585;52.530;7.320;2022-08-18T06:25:30;14.45;;;12.52;;
11064;SDS011;5585;52.530;7.320;2022-08-18T06:28:00;12.68;;;11.23;;
11064;SDS011;5585;52.530;7.320;2022-08-18T06:30:33;14.23;;;10.98;;
11064;SDS011;5585;52.530;7.320;2022-08-18T06:33:06;12.20;;;10.95;;
11064;SDS011;5585;52.530;7.320;2022-08-18T06:35:35;12.20;;;10.77;;
11064;SDS011;5585;52.530;7.320;2022-08-18T06:38:06;11.52;;;10.32;;
11064;SDS011;5585;52.530;7.320;2022-08-18T06:40:59;10.65;;;9.50;;
11064;SDS011;5585;52.530;7.320;2022-08-18T06:43:26;12.43;;;10.02;;
11064;SDS011;5585;52.530;7.320;2022-08-18T06:45:54;11.55;;;8.70;;
11064;SDS011;5585;52.530;7.320;2022-08-18T06:48:22;10.88;;;9.13;;
11064;SDS011;5585;52.530;7.320;2022-08-18T06:50:52;10.23;;;8.07;;
11064;SDS011;5585;52.530;7.320;2022-08-18T06:53:19;11.05;;;8.88;;
11064;SDS011;5585;52.530;7.320;2022-08-18T06:55:47;9.45;;;8.52;;
11064;SDS011;5585;52.530;7.320;2022-08-18T06:58:20;9.38;;;8.43;;
11064;SDS011;5585;52.530;7.320;2022-08-18T07:00:53;10.05;;;8.77;;
11064;SDS011;5585;52.530;7.320;2022-08-18T07:03:23;9.23;;;7.93;;
11064;SDS011;5585;52.530;7.320;2022-08-18T07:05:58;9.68;;;7.63;;
11064;SDS011;5585;52.530;7.320;2022-08-18T07:08:27;8.75;;;7.85;;
11064;SDS011;5585;52.530;7.320;2022-08-18T07:10:57;7.88;;;6.90;;
11064;SDS011;5585;52.530;7.320;2022-08-18T07:13:36;7.75;;;6.95;;
11064;SDS011;5585;52.530;7.320;2022-08-18T07:16:14;8.40;;;6.78;;
11064;SDS011;5585;52.530;7.320;2022-08-18T07:18:42;7.53;;;6.72;;
11064;SDS011;5585;52.530;7.320;2022-08-18T07:21:08;7.78;;;6.20;;
11064;SDS011;5585;52.530;7.320;2022-08-18T07:23:56;9.38;;;7.50;;
11064;SDS011;5585;52.530;7.320;2022-08-18T07:26:23;10.38;;;7.10;;
11064;SDS011;5585;52.530;7.320;2022-08-18T07:28:50;9.05;;;7.07;;
11064;SDS011;5585;52.530;7.320;2022-08-18T07:34:01;8.82;;;7.03;;
11064;SDS011;5585;52.530;7.320;2022-08-18T07:36:29;8.10;;;6.88;;
11064;SDS011;5585;52.530;7.320;2022-08-18T07:38:59;8.07;;;6.80;;
11064;SDS011;5585;52.530;7.320;2022-08-18T07:41:29;10.15;;;7.72;;
11064;SDS011;5585;52.530;7.320;2022-08-18T07:44:00;8.30;;;7.22;;
11064;SDS011;5585;52.530;7.320;2022-08-18T07:46:30;7.50;;;6.18;;
11064;SDS011;5585;52.530;7.320;2022-08-18T07:49:00;7.60;;;6.30;;
11064;SDS011;5585;52.530;7.320;2022-08-18T07:51:28;9.18;;;7.60;;
11064;SDS011;5585;52.530;7.320;2022-08-18T07:54:06;10.23;;;8.35;;
11064;SDS011;5585;52.530;7.320;2022-08-18T07:56:35;10.57;;;7.28;;
11064;SDS011;5585;52.530;7.320;2022-08-18T07:59:09;7.57;;;6.57;;
11064;SDS011;5585;52.530;7.320;2022-08-18T08:01:40;8.00;;;6.63;;
11064;SDS011;5585;52.530;7.320;2022-08-18T08:04:11;9.48;;;8.27;;
11064;SDS011;5585;52.530;7.320;2022-08-18T08:06:41;11.40;;;9.50;;
11064;SDS011;5585;52.530;7.320;2022-08-18T08:09:10;8.82;;;7.65;;
11064;SDS011;5585;52.530;7.320;2022-08-18T08:11:40;9.45;;;8.55;;
11064;SDS011;5585;52.530;7.320;2022-08-18T08:14:15;9.20;;;8.30;;
11064;SDS011;5585;52.530;7.320;2022-08-18T08:16:45;8.50;;;7.70;;
11064;SDS011;5585;52.530;7.320;2022-08-18T08:21:57;9.95;;;8.95;;
11064;SDS011;5585;52.530;7.320;2022-08-18T08:24:34;10.65;;;9.60;;
11064;SDS011;5585;52.530;7.320;2022-08-18T08:27:04;7.82;;;7.13;;
11064;SDS011;5585;52.530;7.320;2022-08-18T08:29:35;9.43;;;8.45;;
11064;SDS011;5585;52.530;7.320;2022-08-18T08:32:04;9.50;;;7.10;;
11064;SDS011;5585;52.530;7.320;2022-08-18T08:34:33;8.45;;;7.40;;
11064;SDS011;5585;52.530;7.320;2022-08-18T08:37:03;8.57;;;7.25;;
11064;SDS011;5585;52.530;7.320;2022-08-18T08:39:32;8.35;;;7.55;;
11064;SDS011;5585;52.530;7.320;2022-08-18T08:42:04;8.18;;;6.93;;
11064;SDS011;5585;52.530;7.320;2022-08-18T08:44:34;7.03;;;5.88;;
11064;SDS011;5585;52.530;7.320;2022-08-18T08:47:06;7.18;;;6.53;;
11064;SDS011;5585;52.530;7.320;2022-08-18T08:49:37;6.70;;;6.05;;
11064;SDS011;5585;52.530;7.320;2022-08-18T08:52:06;5.90;;;5.40;;
11064;SDS011;5585;52.530;7.320;2022-08-18T08:54:38;5.03;;;4.63;;
11064;SDS011;5585;52.530;7.320;2022-08-18T08:57:06;6.32;;;5.30;;
11064;SDS011;5585;52.530;7.320;2022-08-18T08:59:33;7.07;;;5.70;;
11064;SDS011;5585;52.530;7.320;2022-08-18T09:02:05;6.32;;;5.25;;
11064;SDS011;5585;52.530;7.320;2022-08-18T09:04:40;5.35;;;4.85;;
11064;SDS011;5585;52.530;7.320;2022-08-18T09:07:14;6.30;;;4.70;;
11064;SDS011;5585;52.530;7.320;2022-08-18T09:09:51;5.82;;;5.22;;
11064;SDS011;5585;52.530;7.320;2022-08-18T09:12:23;5.43;;;4.93;;
11064;SDS011;5585;52.530;7.320;2022-08-18T09:17:39;4.70;;;4.30;;
11064;SDS011;5585;52.530;7.320;2022-08-18T09:20:23;4.85;;;4.45;;
11064;SDS011;5585;52.530;7.320;2022-08-18T09:22:53;4.40;;;4.00;;
11064;SDS011;5585;52.530;7.320;2022-08-18T09:25:31;4.03;;;3.72;;
11064;SDS011;5585;52.530;7.320;2022-08-18T09:28:06;5.00;;;4.20;;
11064;SDS011;5585;52.530;7.320;2022-08-18T09:30:42;4.18;;;3.78;;
11064;SDS011;5585;52.530;7.320;2022-08-18T09:36:03;5.68;;;4.32;;
11064;SDS011;5585;52.530;7.320;2022-08-18T09:38:35;5.18;;;4.00;;
11064;SDS011;5585;52.530;7.320;2022-08-18T09:41:21;5.00;;;3.75;;
11064;SDS011;5585;52.530;7.320;2022-08-18T09:44:00;4.57;;;4.18;;
11064;SDS011;5585;52.530;7.320;2022-08-18T09:46:49;4.75;;;4.15;;
11064;SDS011;5585;52.530;7.320;2022-08-18T09:54:50;4.47;;;3.63;;
11064;SDS011;5585;52.530;7.320;2022-08-18T09:57:21;3.80;;;3.47;;
11064;SDS011;5585;52.530;7.320;2022-08-18T09:59:52;3.42;;;3.13;;
11064;SDS011;5585;52.530;7.320;2022-08-18T10:05:21;3.20;;;2.90;;
11064;SDS011;5585;52.530;7.320;2022-08-18T10:07:50;3.78;;;2.90;;
11064;SDS011;5585;52.530;7.320;2022-08-18T10:10:21;3.10;;;2.80;;
11064;SDS011;5585;52.530;7.320;2022-08-18T10:13:00;3.20;;;2.90;;
11064;SDS011;5585;52.530;7.320;2022-08-18T10:18:21;4.15;;;3.75;;
11064;SDS011;5585;52.530;7.320;2022-08-18T10:20:53;3.50;;;3.20;;
11064;SDS011;5585;52.530;7.320;2022-08-18T10:29:03;3.30;;;3.03;;
11064;SDS011;5585;52.530;7.320;2022-08-18T10:31:30;3.63;;;3.33;;
11064;SDS011;5585;52.530;7.320;2022-08-18T10:34:02;3.58;;;3.28;;
11064;SDS011;5585;52.530;7.320;2022-08-18T10:36:34;4.10;;;3.30;;
11064;SDS011;5585;52.530;7.320;2022-08-18T10:39:03;3.47;;;3.25;;
11064;SDS011;5585;52.530;7.320;2022-08-18T10:41:30;4.03;;;3.33;;
11064;SDS011;5585;52.530;7.320;2022-08-18T10:43:59;4.03;;;3.60;;
11064;SDS011;5585;52.530;7.320;2022-08-18T10:46:30;3.60;;;3.30;;
11064;SDS011;5585;52.530;7.320;2022-08-18T10:49:02;3.50;;;3.20;;
11064;SDS011;5585;52.530;7.320;2022-08-18T10:51:55;5.55;;;3.40;;
11064;SDS011;5585;52.530;7.320;2022-08-18T10:54:28;3.55;;;3.25;;
11064;SDS011;5585;52.530;7.320;2022-08-18T10:56:59;4.55;;;3.40;;
11064;SDS011;5585;52.530;7.320;2022-08-18T10:59:32;3.95;;;3.33;;
11064;SDS011;5585;52.530;7.320;2022-08-18T11:04:49;3.88;;;3.53;;
11064;SDS011;5585;52.530;7.320;2022-08-18T11:07:17;3.60;;;3.30;;
11064;SDS011;5585;52.530;7.320;2022-08-18T11:09:46;4.22;;;3.70;;
11064;SDS011;5585;52.530;7.320;2022-08-18T11:12:14;3.67;;;3.38;;
11064;SDS011;5585;52.530;7.320;2022-08-18T11:14:48;3.55;;;3.20;;
11064;SDS011;5585;52.530;7.320;2022-08-18T11:17:21;3.60;;;3.30;;
11064;SDS011;5585;52.530;7.320;2022-08-18T11:19:50;3.55;;;3.22;;
11064;SDS011;5585;52.530;7.320;2022-08-18T11:22:21;3.10;;;2.88;;
11064;SDS011;5585;52.530;7.320;2022-08-18T11:24:48;4.07;;;2.95;;
11064;SDS011;5585;52.530;7.320;2022-08-18T11:27:17;3.15;;;2.85;;
11064;SDS011;5585;52.530;7.320;2022-08-18T11:29:44;3.10;;;2.85;;
11064;SDS011;5585;52.530;7.320;2022-08-18T11:32:15;4.00;;;2.50;;
11064;SDS011;5585;52.530;7.320;2022-08-18T11:34:43;3.30;;;2.65;;
11064;SDS011;5585;52.530;7.320;2022-08-18T11:37:20;4.40;;;2.85;;
11064;SDS011;5585;52.530;7.320;2022-08-18T11:39:48;3.85;;;2.85;;
11064;SDS011;5585;52.530;7.320;2022-08-18T11:42:15;3.10;;;2.70;;
11064;SDS011;5585;52.530;7.320;2022-08-18T11:44:42;2.35;;;2.15;;
11064;SDS011;5585;52.530;7.320;2022-08-18T11:47:12;2.67;;;2.30;;
11064;SDS011;5585;52.530;7.320;2022-08-18T11:49:44;3.00;;;2.67;;
11064;SDS011;5585;52.530;7.320;2022-08-18T11:52:16;3.22;;;2.38;;
11064;SDS011;5585;52.530;7.320;2022-08-18T11:54:47;4.47;;;2.30;;
11064;SDS011;5585;52.530;7.320;2022-08-18T11:57:27;5.15;;;2.90;;
11064;SDS011;5585;52.530;7.320;2022-08-18T11:59:54;3.20;;;2.40;;
11064;SDS011;5585;52.530;7.320;2022-08-18T12:02:21;3.28;;;2.53;;
11064;SDS011;5585;52.530;7.320;2022-08-18T12:04:49;2.65;;;2.20;;
11064;SDS011;5585;52.530;7.320;2022-08-18T12:07:18;3.13;;;2.60;;
11064;SDS011;5585;52.530;7.320;2022-08-18T12:12:42;4.28;;;2.72;;
11064;SDS011;5585;52.530;7.320;2022-08-18T12:15:22;3.58;;;2.95;;
11064;SDS011;5585;52.530;7.320;2022-08-18T12:17:49;3.17;;;2.70;;
11064;SDS011;5585;52.530;7.320;2022-08-18T12:20:16;4.57;;;2.80;;
11064;SDS011;5585;52.530;7.320;2022-08-18T12:22:44;3.70;;;2.60;;
11064;SDS011;5585;52.530;7.320;2022-08-18T12:25:12;3.45;;;2.60;;
11064;SDS011;5585;52.530;7.320;2022-08-18T12:27:40;4.43;;;2.95;;
11064;SDS011;5585;52.530;7.320;2022-08-18T12:30:08;2.90;;;2.67;;
11064;SDS011;5585;52.530;7.320;2022-08-18T12:32:36;3.13;;;2.70;;
11064;SDS011;5585;52.530;7.320;2022-08-18T12:35:03;2.72;;;2.30;;
11064;SDS011;5585;52.530;7.320;2022-08-18T12:37:30;3.35;;;2.53;;
11064;SDS011;5585;52.530;7.320;2022-08-18T12:39:57;3.33;;;2.50;;
11064;SDS011;5585;52.530;7.320;2022-08-18T12:42:24;3.60;;;2.40;;
11064;SDS011;5585;52.530;7.320;2022-08-18T12:44:52;2.65;;;2.28;;
11064;SDS011;5585;52.530;7.320;2022-08-18T12:47:19;3.05;;;2.38;;
11064;SDS011;5585;52.530;7.320;2022-08-18T12:49:46;3.38;;;2.40;;
11064;SDS011;5585;52.530;7.320;2022-08-18T12:52:13;2.67;;;2.38;;
11064;SDS011;5585;52.530;7.320;2022-08-18T12:54:40;2.97;;;2.70;;
11064;SDS011;5585;52.530;7.320;2022-08-18T12:57:08;2.97;;;2.53;;
11064;SDS011;5585;52.530;7.320;2022-08-18T12:59:38;2.10;;;1.90;;
11064;SDS011;5585;52.530;7.320;2022-08-18T13:02:05;2.92;;;2.28;;
11064;SDS011;5585;52.530;7.320;2022-08-18T13:04:33;4.22;;;2.42;;
11064;SDS011;5585;52.530;7.320;2022-08-18T13:07:00;5.07;;;2.38;;
11064;SDS011;5585;52.530;7.320;2022-08-18T13:09:28;2.65;;;2.30;;
11064;SDS011;5585;52.530;7.320;2022-08-18T13:11:54;3.58;;;2.10;;
11064;SDS011;5585;52.530;7.320;2022-08-18T13:14:21;2.78;;;2.20;;
11064;SDS011;5585;52.530;7.320;2022-08-18T13:16:47;2.20;;;2.00;;
11064;SDS011;5585;52.530;7.320;2022-08-18T13:19:17;3.63;;;2.20;;
11064;SDS011;5585;52.530;7.320;2022-08-18T13:21:43;2.83;;;2.08;;
11064;SDS011;5585;52.530;7.320;2022-08-18T13:24:10;3.75;;;2.58;;
11064;SDS011;5585;52.530;7.320;2022-08-18T13:26:38;2.50;;;2.30;;
11064;SDS011;5585;52.530;7.320;2022-08-18T13:29:06;2.88;;;2.42;;
11064;SDS011;5585;52.530;7.320;2022-08-18T13:31:32;3.85;;;2.30;;
11064;SDS011;5585;52.530;7.320;2022-08-18T13:33:59;8.93;;;3.00;;
11064;SDS011;5585;52.530;7.320;2022-08-18T13:36:27;4.00;;;2.47;;
11064;SDS011;5585;52.530;7.320;2022-08-18T13:39:08;3.70;;;2.38;;
11064;SDS011;5585;52.530;7.320;2022-08-18T13:41:35;4.00;;;2.38;;
11064;SDS011;5585;52.530;7.320;2022-08-18T13:44:01;4.43;;;2.42;;
11064;SDS011;5585;52.530;7.320;2022-08-18T13:46:28;3.50;;;2.40;;
11064;SDS011;5585;52.530;7.320;2022-08-18T13:48:54;4.15;;;2.20;;
11064;SDS011;5585;52.530;7.320;2022-08-18T13:51:28;3.05;;;2.00;;
11064;SDS011;5585;52.530;7.320;2022-08-18T13:53:54;2.35;;;1.73;;
11064;SDS011;5585;52.530;7.320;2022-08-18T13:56:21;2.05;;;1.75;;
11064;SDS011;5585;52.530;7.320;2022-08-18T13:58:48;2.67;;;1.58;;
11064;SDS011;5585;52.530;7.320;2022-08-18T14:01:14;1.67;;;1.58;;
11064;SDS011;5585;52.530;7.320;2022-08-18T14:03:41;1.50;;;1.40;;
11064;SDS011;5585;52.530;7.320;2022-08-18T14:06:07;1.80;;;1.55;;
11064;SDS011;5585;52.530;7.320;2022-08-18T14:08:36;2.17;;;1.70;;
11064;SDS011;5585;52.530;7.320;2022-08-18T14:11:02;1.70;;;1.50;;
11064;SDS011;5585;52.530;7.320;2022-08-18T14:13:29;1.52;;;1.42;;
11064;SDS011;5585;52.530;7.320;2022-08-18T14:15:57;1.45;;;1.25;;
11064;SDS011;5585;52.530;7.320;2022-08-18T14:18:25;1.35;;;1.20;;
11064;SDS011;5585;52.530;7.320;2022-08-18T14:20:53;2.45;;;1.67;;
11064;SDS011;5585;52.530;7.320;2022-08-18T14:23:38;1.50;;;1.40;;
11064;SDS011;5585;52.530;7.320;2022-08-18T14:26:22;1.85;;;1.48;;
11064;SDS011;5585;52.530;7.320;2022-08-18T14:29:06;1.65;;;1.55;;
11064;SDS011;5585;52.530;7.320;2022-08-18T14:31:33;2.17;;;1.98;;
11064;SDS011;5585;52.530;7.320;2022-08-18T14:34:00;1.90;;;1.80;;
11064;SDS011;5585;52.530;7.320;2022-08-18T14:36:26;2.72;;;1.75;;
11064;SDS011;5585;52.530;7.320;2022-08-18T14:38:54;2.95;;;1.60;;
11064;SDS011;5585;52.530;7.320;2022-08-18T14:41:21;1.98;;;1.80;;
11064;SDS011;5585;52.530;7.320;2022-08-18T14:43:48;2.05;;;1.60;;
11064;SDS011;5585;52.530;7.320;2022-08-18T14:46:17;2.35;;;1.80;;
11064;SDS011;5585;52.530;7.320;2022-08-18T14:48:44;1.73;;;1.63;;
11064;SDS011;5585;52.530;7.320;2022-08-18T14:51:11;1.98;;;1.45;;
11064;SDS011;5585;52.530;7.320;2022-08-18T14:53:38;1.42;;;1.30;;
11064;SDS011;5585;52.530;7.320;2022-08-18T14:56:06;2.42;;;1.77;;
11064;SDS011;5585;52.530;7.320;2022-08-18T14:58:35;1.33;;;1.23;;
11064;SDS011;5585;52.530;7.320;2022-08-18T15:01:03;2.53;;;1.30;;
11064;SDS011;5585;52.530;7.320;2022-08-18T15:03:32;1.42;;;1.33;;
11064;SDS011;5585;52.530;7.320;2022-08-18T15:06:00;1.73;;;1.63;;
11064;SDS011;5585;52.530;7.320;2022-08-18T15:08:27;1.50;;;1.40;;
11064;SDS011;5585;52.530;7.320;2022-08-18T15:10:53;1.50;;;1.40;;
11064;SDS011;5585;52.530;7.320;2022-08-18T15:13:22;1.25;;;1.15;;
11064;SDS011;5585;52.530;7.320;2022-08-18T15:15:48;1.80;;;1.42;;
11064;SDS011;5585;52.530;7.320;2022-08-18T15:18:15;1.33;;;1.13;;
11064;SDS011;5585;52.530;7.320;2022-08-18T15:20:42;1.30;;;1.20;;
11064;SDS011;5585;52.530;7.320;2022-08-18T15:23:23;1.77;;;1.27;;
11064;SDS011;5585;52.530;7.320;2022-08-18T15:26:07;1.30;;;1.20;;
11064;SDS011;5585;52.530;7.320;2022-08-18T15:28:35;1.52;;;1.25;;
11064;SDS011;5585;52.530;7.320;2022-08-18T15:31:03;1.20;;;1.05;;
11064;SDS011;5585;52.530;7.320;2022-08-18T15:33:30;1.30;;;1.02;;
11064;SDS011;5585;52.530;7.320;2022-08-18T15:35:57;1.33;;;1.20;;